Linville Falls, NC

6:41 PM EDT on May 30, 2015 (GMT -0400)
NonFedAWOS | | Change Station
CLOSE
Current Station
Personal Weather Station
Location: Linville Falls, NC
Elevation: 2750 ft
Nearby Weather Stations

Elev 2750 ft 35.94 °N, 82.00 °W | Updated 46 minutes ago

Mostly Cloudy
Mostly Cloudy
73 °F
Feels Like 77 °F
N
0
Wind Variable Wind from North
Gusts 0.0 mph

Today
High -- | Low -- °F
--% Chance of Precip.
Yesterday
High -- | Low -- °F
Precip. -- in
6:13 AM 8:37 PM
Waxing Gibbous, 92% visible
Pressure 30.21 in
Visibility 10.0 miles
Clouds Clear
Heat Index 77 °F
Dew Point 57 °F
Humidity 57%
Rainfall in
Snow Depth Not available.
UV 2 out of 12
Pollen 6.70 out of 12
Air Quality Not available.
Flu Activity No Activity
METAR KTNB 302235Z AUTO 14004KT 10SM CLR 23/13 A3021 RMK AO2 T02300127

More Conditions Fewer Conditions

Pressure 30.21 in
Visibility 10.0 miles
Clouds Clear
Heat Index 77 °F
Dew Point 57 °F
Humidity 57%
Rainfall in
Snow Depth Not available.
UV 2 out of 12
Pollen 6.70 out of 12
Air Quality Not available.
Flu Activity No Activity
METAR KTNB 302235Z AUTO 14004KT 10SM CLR 23/13 A3021 RMK AO2 T02300127

More Conditions Fewer Conditions

10-Day Weather Forecast

Almanac

Astronomy

May. 30, 2015 Rise Set
Actual Time
Civil Twilight
Nautical Twilight
Astronomical Twilight
Moon
Length of Visible Light
Length of Day
Tomorrow will be .
, % of the Moon is Illuminated

Today's Extremes

State Highs State Lows

Community

WunderPhotos

Upload Photos

1,825,609 photos uploaded!

WunderBlogs® & News

Nearby

Air Quality

  Air Quality AQ Index Pollutant
Not available.

Snow Depth

Station Depth Elevation

Earthquake Activity

City Distance Mag. Time & Date
Minimum magnitude displayed is 2.5.

Coastal Water Temperatures

Place Temperature

Stations

Nearby Weather Stations

Station Location Temp. Windchill Dew Point Humidity Wind Precip. Elev Updated Type